createdAt,value
2022-12-25T00:04:47.566Z,84.66
2022-12-25T00:14:47.490Z,84.72
2022-12-25T00:24:47.480Z,84.78
2022-12-25T00:34:47.552Z,84.84
2022-12-25T00:44:47.536Z,84.73
2022-12-25T00:54:47.598Z,84.68
2022-12-25T01:04:47.547Z,84.69
2022-12-25T01:14:47.624Z,84.63
2022-12-25T01:24:47.525Z,84.57
2022-12-25T01:34:53.733Z,84.56
2022-12-25T01:44:49.778Z,84.59
2022-12-25T01:54:50.241Z,84.54
2022-12-25T02:04:50.641Z,84.54
2022-12-25T02:14:50.610Z,84.50
2022-12-25T02:24:50.814Z,84.50
2022-12-25T02:34:50.625Z,84.54
2022-12-25T02:45:22.289Z,84.48
2022-12-25T02:55:41.801Z,84.50
2022-12-25T03:05:59.948Z,84.48
2022-12-25T03:16:20.152Z,84.48
2022-12-25T03:26:39.082Z,84.46
2022-12-25T03:36:38.828Z,84.47
2022-12-25T03:46:57.048Z,84.46
2022-12-25T03:57:15.194Z,84.46
2022-12-25T04:07:34.081Z,84.40
2022-12-25T04:17:51.897Z,84.39
2022-12-25T04:28:10.177Z,84.41
2022-12-25T04:38:09.802Z,84.35
2022-12-25T04:48:09.833Z,84.41
2022-12-25T04:58:09.909Z,84.43
2022-12-25T05:08:11.042Z,84.41
2022-12-25T05:18:10.973Z,84.43
2022-12-25T05:28:10.895Z,84.43
2022-12-25T05:38:10.919Z,84.43
2022-12-25T05:48:11.031Z,84.53
2022-12-25T05:58:10.972Z,84.61
2022-12-25T06:08:10.929Z,84.73
2022-12-25T06:18:11.033Z,84.59
2022-12-25T06:28:10.984Z,84.58
2022-12-25T06:38:13.999Z,84.66
2022-12-25T06:48:14.211Z,84.66
2022-12-25T06:58:13.944Z,84.53
2022-12-25T07:08:14.120Z,84.57
2022-12-25T07:18:14.120Z,84.57
2022-12-25T07:28:14.077Z,84.48
2022-12-25T07:38:14.490Z,84.49
2022-12-25T07:48:16.889Z,84.44
2022-12-25T07:58:21.445Z,84.44
2022-12-25T08:08:19.147Z,84.32
2022-12-25T08:18:21.267Z,84.31
2022-12-25T08:28:21.133Z,84.40
2022-12-25T08:38:21.164Z,84.34
2022-12-25T08:48:21.245Z,84.19
2022-12-25T08:58:21.136Z,84.25
2022-12-25T09:08:21.352Z,84.09
2022-12-25T09:18:21.240Z,84.13
2022-12-25T09:28:21.186Z,84.69
2022-12-25T09:38:21.255Z,84.91
2022-12-25T09:48:21.226Z,85.02
2022-12-25T09:58:21.187Z,85.29
2022-12-25T10:08:21.283Z,85.40
2022-12-25T10:18:21.257Z,85.29
2022-12-25T10:28:21.253Z,85.24
2022-12-25T10:38:21.276Z,85.43
2022-12-25T10:48:21.314Z,85.46
2022-12-25T10:58:21.269Z,85.31
2022-12-25T11:08:21.510Z,85.44
2022-12-25T11:18:21.352Z,85.82
2022-12-25T11:28:21.344Z,85.75
2022-12-25T11:38:21.427Z,85.56
2022-12-25T11:48:21.416Z,85.88
2022-12-25T11:58:21.366Z,86.35
2022-12-25T12:08:21.423Z,86.43
2022-12-25T12:18:21.426Z,86.48
2022-12-25T12:28:21.415Z,86.45
2022-12-25T12:38:21.419Z,86.65
2022-12-25T12:48:21.578Z,86.66
2022-12-25T12:58:21.492Z,86.63
2022-12-25T13:08:21.462Z,86.44
2022-12-25T13:18:21.496Z,86.50
2022-12-25T13:28:21.498Z,86.57
2022-12-25T13:38:21.482Z,86.73
2022-12-25T13:48:23.040Z,86.61
2022-12-25T13:58:23.483Z,86.60
2022-12-25T14:08:23.800Z,86.82
2022-12-25T14:18:23.868Z,86.78
2022-12-25T14:28:24.207Z,86.92
2022-12-25T14:38:24.620Z,86.97
2022-12-25T14:48:25.669Z,87.02
2022-12-25T14:58:25.650Z,87.10
2022-12-25T15:08:25.719Z,87.13
2022-12-25T15:18:25.668Z,87.16
2022-12-25T15:28:25.630Z,87.20
2022-12-25T15:38:25.631Z,87.18
2022-12-25T15:48:28.901Z,87.17
2022-12-25T15:58:28.771Z,87.14
2022-12-25T16:08:28.754Z,87.12
2022-12-25T16:18:29.842Z,87.04
2022-12-25T16:28:29.726Z,87.00
2022-12-25T16:38:31.188Z,86.95
2022-12-25T16:48:31.778Z,86.89
2022-12-25T16:58:31.729Z,86.76
2022-12-25T17:08:31.733Z,86.64
2022-12-25T17:18:31.789Z,86.62
2022-12-25T17:28:31.726Z,86.63
2022-12-25T17:38:32.105Z,86.58
2022-12-25T17:48:31.814Z,86.50
2022-12-25T17:58:31.791Z,86.47
2022-12-25T18:08:38.700Z,86.48
2022-12-25T18:18:34.638Z,86.42
2022-12-25T18:28:34.869Z,86.37
2022-12-25T18:38:35.191Z,86.30
2022-12-25T18:48:34.870Z,86.31
2022-12-25T18:58:35.607Z,86.33
2022-12-25T19:08:35.945Z,86.25
2022-12-25T19:18:35.893Z,86.24
2022-12-25T19:28:36.864Z,86.14
2022-12-25T19:38:36.982Z,86.08
2022-12-25T19:48:37.233Z,86.05
2022-12-25T19:58:37.203Z,85.98
2022-12-25T20:08:37.805Z,85.96
2022-12-25T20:18:38.127Z,85.98
2022-12-25T20:28:38.055Z,85.96
2022-12-25T20:38:38.235Z,85.84
2022-12-25T20:48:38.091Z,85.74
2022-12-25T20:58:38.056Z,85.74
2022-12-25T21:08:38.235Z,85.68
2022-12-25T21:18:38.200Z,85.60
2022-12-25T21:28:38.283Z,85.57
2022-12-25T21:38:38.135Z,85.54
2022-12-25T21:48:38.098Z,85.44
2022-12-25T21:58:38.229Z,85.33
2022-12-25T22:08:38.163Z,85.18
2022-12-25T22:18:56.423Z,85.24
2022-12-25T22:28:56.277Z,85.45
2022-12-25T22:38:56.174Z,85.51
2022-12-25T22:48:56.248Z,85.80
2022-12-25T22:58:56.269Z,86.10
2022-12-25T23:08:56.587Z,86.27
2022-12-25T23:19:14.544Z,86.44
2022-12-25T23:29:42.869Z,86.56
2022-12-25T23:39:43.340Z,86.71
2022-12-25T23:49:43.618Z,86.76
2022-12-25T23:59:43.402Z,86.82
